sensor_id;sensor_type;location;lat;lon;timestamp;temperature;humidity
33841;DHT22;20142;28.494;-16.312;2024-03-02T00:01:58;14.70;83.40
33841;DHT22;20142;28.494;-16.312;2024-03-02T00:07:00;14.50;83.20
33841;DHT22;20142;28.494;-16.312;2024-03-02T00:12:02;14.60;83.40
33841;DHT22;20142;28.494;-16.312;2024-03-02T00:17:04;14.60;83.40
33841;DHT22;20142;28.494;-16.312;2024-03-02T00:22:06;14.60;83.70
33841;DHT22;20142;28.494;-16.312;2024-03-02T00:27:13;14.60;84.20
33841;DHT22;20142;28.494;-16.312;2024-03-02T00:32:16;14.70;84.90
33841;DHT22;20142;28.494;-16.312;2024-03-02T00:37:18;14.60;85.50
33841;DHT22;20142;28.494;-16.312;2024-03-02T00:42:20;14.60;86.10
33841;DHT22;20142;28.494;-16.312;2024-03-02T00:47:21;14.50;87.00
33841;DHT22;20142;28.494;-16.312;2024-03-02T00:52:24;14.50;87.70
33841;DHT22;20142;28.494;-16.312;2024-03-02T00:57:27;14.50;87.90
33841;DHT22;20142;28.494;-16.312;2024-03-02T01:02:31;14.40;88.70
33841;DHT22;20142;28.494;-16.312;2024-03-02T01:07:33;14.30;89.50
33841;DHT22;20142;28.494;-16.312;2024-03-02T01:12:35;14.20;90.00
33841;DHT22;20142;28.494;-16.312;2024-03-02T01:17:37;14.00;91.40
33841;DHT22;20142;28.494;-16.312;2024-03-02T01:22:38;14.00;92.20
33841;DHT22;20142;28.494;-16.312;2024-03-02T01:27:40;14.20;92.10
33841;DHT22;20142;28.494;-16.312;2024-03-02T01:32:42;14.30;91.90
33841;DHT22;20142;28.494;-16.312;2024-03-02T01:37:44;14.30;91.90
33841;DHT22;20142;28.494;-16.312;2024-03-02T01:42:45;14.40;91.80
33841;DHT22;20142;28.494;-16.312;2024-03-02T01:47:47;14.40;91.70
33841;DHT22;20142;28.494;-16.312;2024-03-02T01:52:49;14.40;91.90
33841;DHT22;20142;28.494;-16.312;2024-03-02T01:57:51;14.40;92.10
33841;DHT22;20142;28.494;-16.312;2024-03-02T02:02:53;14.40;92.00
33841;DHT22;20142;28.494;-16.312;2024-03-02T02:07:55;14.40;92.30
33841;DHT22;20142;28.494;-16.312;2024-03-02T02:13:00;14.30;92.30
33841;DHT22;20142;28.494;-16.312;2024-03-02T02:18:01;14.30;92.20
33841;DHT22;20142;28.494;-16.312;2024-03-02T02:23:05;14.30;91.90
33841;DHT22;20142;28.494;-16.312;2024-03-02T02:28:08;14.20;91.50
33841;DHT22;20142;28.494;-16.312;2024-03-02T02:33:11;14.20;90.80
33841;DHT22;20142;28.494;-16.312;2024-03-02T02:38:13;14.10;90.30
33841;DHT22;20142;28.494;-16.312;2024-03-02T02:43:15;14.00;90.80
33841;DHT22;20142;28.494;-16.312;2024-03-02T02:48:16;13.90;91.10
33841;DHT22;20142;28.494;-16.312;2024-03-02T02:53:18;14.00;91.30
33841;DHT22;20142;28.494;-16.312;2024-03-02T02:58:20;14.00;90.60
33841;DHT22;20142;28.494;-16.312;2024-03-02T03:03:22;14.10;90.10
33841;DHT22;20142;28.494;-16.312;2024-03-02T03:08:23;14.10;90.10
33841;DHT22;20142;28.494;-16.312;2024-03-02T03:13:25;14.10;90.30
33841;DHT22;20142;28.494;-16.312;2024-03-02T03:18:27;14.10;90.70
33841;DHT22;20142;28.494;-16.312;2024-03-02T03:23:28;14.10;91.30
33841;DHT22;20142;28.494;-16.312;2024-03-02T03:28:30;14.20;91.20
33841;DHT22;20142;28.494;-16.312;2024-03-02T03:33:32;14.20;91.00
33841;DHT22;20142;28.494;-16.312;2024-03-02T03:38:33;14.20;91.10
33841;DHT22;20142;28.494;-16.312;2024-03-02T03:43:35;14.20;90.50
33841;DHT22;20142;28.494;-16.312;2024-03-02T03:48:37;14.30;90.10
33841;DHT22;20142;28.494;-16.312;2024-03-02T03:53:39;14.40;89.80
33841;DHT22;20142;28.494;-16.312;2024-03-02T03:58:40;14.30;89.80
33841;DHT22;20142;28.494;-16.312;2024-03-02T04:03:42;14.30;89.90
33841;DHT22;20142;28.494;-16.312;2024-03-02T04:08:44;14.20;90.50
33841;DHT22;20142;28.494;-16.312;2024-03-02T04:13:46;14.30;90.80
33841;DHT22;20142;28.494;-16.312;2024-03-02T04:18:47;14.30;90.50
33841;DHT22;20142;28.494;-16.312;2024-03-02T04:23:49;14.30;90.20
33841;DHT22;20142;28.494;-16.312;2024-03-02T04:28:51;14.30;90.50
33841;DHT22;20142;28.494;-16.312;2024-03-02T04:33:53;14.20;90.00
33841;DHT22;20142;28.494;-16.312;2024-03-02T04:38:55;14.30;90.20
33841;DHT22;20142;28.494;-16.312;2024-03-02T04:43:57;14.30;90.20
33841;DHT22;20142;28.494;-16.312;2024-03-02T04:48:58;14.30;90.10
33841;DHT22;20142;28.494;-16.312;2024-03-02T04:54:00;14.40;90.20
33841;DHT22;20142;28.494;-16.312;2024-03-02T04:59:02;14.40;90.00
33841;DHT22;20142;28.494;-16.312;2024-03-02T05:04:03;14.40;89.90
33841;DHT22;20142;28.494;-16.312;2024-03-02T05:09:06;14.40;89.60
33841;DHT22;20142;28.494;-16.312;2024-03-02T05:14:08;14.40;89.50
33841;DHT22;20142;28.494;-16.312;2024-03-02T05:19:09;14.40;89.40
33841;DHT22;20142;28.494;-16.312;2024-03-02T05:24:11;14.50;89.10
33841;DHT22;20142;28.494;-16.312;2024-03-02T05:29:13;14.40;89.20
33841;DHT22;20142;28.494;-16.312;2024-03-02T05:34:15;14.40;89.00
33841;DHT22;20142;28.494;-16.312;2024-03-02T05:39:17;14.40;89.30
33841;DHT22;20142;28.494;-16.312;2024-03-02T05:44:19;14.40;89.90
33841;DHT22;20142;28.494;-16.312;2024-03-02T05:49:21;14.40;90.00
33841;DHT22;20142;28.494;-16.312;2024-03-02T05:54:22;14.40;89.80
33841;DHT22;20142;28.494;-16.312;2024-03-02T05:59:24;14.40;89.80
33841;DHT22;20142;28.494;-16.312;2024-03-02T06:04:26;14.40;90.20
33841;DHT22;20142;28.494;-16.312;2024-03-02T06:09:27;14.50;89.90
33841;DHT22;20142;28.494;-16.312;2024-03-02T06:14:29;14.50;89.90
33841;DHT22;20142;28.494;-16.312;2024-03-02T06:19:31;14.50;88.80
33841;DHT22;20142;28.494;-16.312;2024-03-02T06:24:32;14.50;88.30
33841;DHT22;20142;28.494;-16.312;2024-03-02T06:29:34;14.50;88.20
33841;DHT22;20142;28.494;-16.312;2024-03-02T06:34:36;14.40;87.60
33841;DHT22;20142;28.494;-16.312;2024-03-02T06:39:37;14.40;87.30
33841;DHT22;20142;28.494;-16.312;2024-03-02T06:44:40;14.40;87.10
33841;DHT22;20142;28.494;-16.312;2024-03-02T06:49:42;14.30;86.80
33841;DHT22;20142;28.494;-16.312;2024-03-02T06:54:43;14.40;85.90
33841;DHT22;20142;28.494;-16.312;2024-03-02T06:59:45;14.40;86.40
33841;DHT22;20142;28.494;-16.312;2024-03-02T07:04:47;14.40;86.30
33841;DHT22;20142;28.494;-16.312;2024-03-02T07:09:49;14.30;86.70
33841;DHT22;20142;28.494;-16.312;2024-03-02T07:14:50;14.40;86.60
33841;DHT22;20142;28.494;-16.312;2024-03-02T07:20:15;14.50;86.50
33841;DHT22;20142;28.494;-16.312;2024-03-02T07:25:17;14.50;86.70
33841;DHT22;20142;28.494;-16.312;2024-03-02T07:30:18;14.50;87.30
33841;DHT22;20142;28.494;-16.312;2024-03-02T07:35:21;14.50;87.90
33841;DHT22;20142;28.494;-16.312;2024-03-02T07:40:27;14.50;88.20
33841;DHT22;20142;28.494;-16.312;2024-03-02T07:45:29;14.50;88.90
33841;DHT22;20142;28.494;-16.312;2024-03-02T07:50:31;14.60;89.10
33841;DHT22;20142;28.494;-16.312;2024-03-02T07:55:35;14.50;88.80
33841;DHT22;20142;28.494;-16.312;2024-03-02T08:00:39;14.50;88.80
33841;DHT22;20142;28.494;-16.312;2024-03-02T08:05:42;14.50;89.00
33841;DHT22;20142;28.494;-16.312;2024-03-02T08:10:44;14.60;89.40
33841;DHT22;20142;28.494;-16.312;2024-03-02T08:15:45;14.50;89.50
33841;DHT22;20142;28.494;-16.312;2024-03-02T08:20:47;14.20;90.50
33841;DHT22;20142;28.494;-16.312;2024-03-02T08:25:49;13.90;92.80
33841;DHT22;20142;28.494;-16.312;2024-03-02T08:30:51;13.70;93.30
33841;DHT22;20142;28.494;-16.312;2024-03-02T08:35:53;13.60;93.80
33841;DHT22;20142;28.494;-16.312;2024-03-02T08:40:55;13.60;94.40
33841;DHT22;20142;28.494;-16.312;2024-03-02T08:45:56;13.60;94.80
33841;DHT22;20142;28.494;-16.312;2024-03-02T08:50:58;13.80;94.70
33841;DHT22;20142;28.494;-16.312;2024-03-02T08:56:00;14.00;94.30
33841;DHT22;20142;28.494;-16.312;2024-03-02T09:01:02;14.20;93.90
33841;DHT22;20142;28.494;-16.312;2024-03-02T09:06:04;14.30;93.10
33841;DHT22;20142;28.494;-16.312;2024-03-02T09:11:06;14.40;93.00
33841;DHT22;20142;28.494;-16.312;2024-03-02T09:16:08;14.50;92.10
33841;DHT22;20142;28.494;-16.312;2024-03-02T09:21:12;14.70;91.40
33841;DHT22;20142;28.494;-16.312;2024-03-02T09:26:14;14.90;90.30
33841;DHT22;20142;28.494;-16.312;2024-03-02T09:31:16;15.10;88.70
33841;DHT22;20142;28.494;-16.312;2024-03-02T09:36:18;15.10;87.70
33841;DHT22;20142;28.494;-16.312;2024-03-02T09:41:21;15.20;87.40
33841;DHT22;20142;28.494;-16.312;2024-03-02T09:46:23;15.30;86.70
33841;DHT22;20142;28.494;-16.312;2024-03-02T09:51:24;15.60;86.60
33841;DHT22;20142;28.494;-16.312;2024-03-02T09:56:26;15.80;85.20
33841;DHT22;20142;28.494;-16.312;2024-03-02T10:01:28;16.30;84.30
33841;DHT22;20142;28.494;-16.312;2024-03-02T10:06:29;16.30;83.20
33841;DHT22;20142;28.494;-16.312;2024-03-02T10:11:32;16.20;83.00
33841;DHT22;20142;28.494;-16.312;2024-03-02T10:16:36;16.10;82.80
33841;DHT22;20142;28.494;-16.312;2024-03-02T10:21:42;16.30;82.30
33841;DHT22;20142;28.494;-16.312;2024-03-02T10:26:44;16.40;82.60
33841;DHT22;20142;28.494;-16.312;2024-03-02T10:31:46;16.40;82.60
33841;DHT22;20142;28.494;-16.312;2024-03-02T10:36:49;16.40;81.90
33841;DHT22;20142;28.494;-16.312;2024-03-02T10:41:52;16.30;81.90
33841;DHT22;20142;28.494;-16.312;2024-03-02T10:46:55;16.30;81.80
33841;DHT22;20142;28.494;-16.312;2024-03-02T10:51:58;16.30;81.90
33841;DHT22;20142;28.494;-16.312;2024-03-02T10:57:00;16.40;81.70
33841;DHT22;20142;28.494;-16.312;2024-03-02T11:02:03;16.70;81.90
33841;DHT22;20142;28.494;-16.312;2024-03-02T11:07:09;16.70;81.60
33841;DHT22;20142;28.494;-16.312;2024-03-02T11:12:31;16.70;81.50
33841;DHT22;20142;28.494;-16.312;2024-03-02T11:17:39;16.60;80.90
33841;DHT22;20142;28.494;-16.312;2024-03-02T11:22:41;16.80;81.20
33841;DHT22;20142;28.494;-16.312;2024-03-02T11:32:55;17.60;78.50
33841;DHT22;20142;28.494;-16.312;2024-03-02T11:37:57;17.40;77.80
33841;DHT22;20142;28.494;-16.312;2024-03-02T11:43:02;17.70;78.40
33841;DHT22;20142;28.494;-16.312;2024-03-02T11:58:42;17.60;76.70
33841;DHT22;20142;28.494;-16.312;2024-03-02T12:03:45;17.70;76.20
33841;DHT22;20142;28.494;-16.312;2024-03-02T12:08:52;17.70;75.80
33841;DHT22;20142;28.494;-16.312;2024-03-02T12:13:56;17.80;75.70
33841;DHT22;20142;28.494;-16.312;2024-03-02T12:18:59;17.90;75.50
33841;DHT22;20142;28.494;-16.312;2024-03-02T12:24:02;18.00;74.50
33841;DHT22;20142;28.494;-16.312;2024-03-02T12:29:04;18.00;73.80
33841;DHT22;20142;28.494;-16.312;2024-03-02T12:34:05;18.00;73.10
33841;DHT22;20142;28.494;-16.312;2024-03-02T12:39:10;17.90;73.40
33841;DHT22;20142;28.494;-16.312;2024-03-02T12:44:12;17.70;73.90
33841;DHT22;20142;28.494;-16.312;2024-03-02T12:49:14;17.80;74.10
33841;DHT22;20142;28.494;-16.312;2024-03-02T12:54:22;17.90;74.50
33841;DHT22;20142;28.494;-16.312;2024-03-02T12:59:25;18.00;74.60
33841;DHT22;20142;28.494;-16.312;2024-03-02T13:04:28;18.00;74.90
33841;DHT22;20142;28.494;-16.312;2024-03-02T13:09:31;18.10;75.10
33841;DHT22;20142;28.494;-16.312;2024-03-02T13:14:35;18.20;75.30
33841;DHT22;20142;28.494;-16.312;2024-03-02T13:19:37;18.50;75.40
33841;DHT22;20142;28.494;-16.312;2024-03-02T13:24:38;18.80;75.30
33841;DHT22;20142;28.494;-16.312;2024-03-02T13:29:43;18.70;75.80
33841;DHT22;20142;28.494;-16.312;2024-03-02T13:34:45;18.90;74.80
33841;DHT22;20142;28.494;-16.312;2024-03-02T13:39:47;19.30;74.70
33841;DHT22;20142;28.494;-16.312;2024-03-02T13:44:48;19.10;74.70
33841;DHT22;20142;28.494;-16.312;2024-03-02T13:49:52;18.60;74.40
33841;DHT22;20142;28.494;-16.312;2024-03-02T13:54:53;19.00;75.10
33841;DHT22;20142;28.494;-16.312;2024-03-02T13:59:55;19.00;74.90
33841;DHT22;20142;28.494;-16.312;2024-03-02T14:04:57;19.10;74.80
33841;DHT22;20142;28.494;-16.312;2024-03-02T14:09:58;19.40;75.50
33841;DHT22;20142;28.494;-16.312;2024-03-02T14:15:00;19.30;75.30
33841;DHT22;20142;28.494;-16.312;2024-03-02T14:20:03;19.00;74.90
33841;DHT22;20142;28.494;-16.312;2024-03-02T14:25:06;19.00;76.10
33841;DHT22;20142;28.494;-16.312;2024-03-02T14:30:08;19.30;76.10
33841;DHT22;20142;28.494;-16.312;2024-03-02T14:35:11;19.60;75.60
33841;DHT22;20142;28.494;-16.312;2024-03-02T14:40:13;19.30;75.60
33841;DHT22;20142;28.494;-16.312;2024-03-02T14:45:15;19.60;76.10
33841;DHT22;20142;28.494;-16.312;2024-03-02T14:50:16;19.80;75.70
33841;DHT22;20142;28.494;-16.312;2024-03-02T14:55:18;19.90;75.70
33841;DHT22;20142;28.494;-16.312;2024-03-02T15:00:20;22.50;71.60
33841;DHT22;20142;28.494;-16.312;2024-03-02T15:05:21;24.40;66.50
33841;DHT22;20142;28.494;-16.312;2024-03-02T15:10:23;25.40;64.50
33841;DHT22;20142;28.494;-16.312;2024-03-02T15:15:25;27.00;59.70
33841;DHT22;20142;28.494;-16.312;2024-03-02T15:20:27;26.60;58.70
33841;DHT22;20142;28.494;-16.312;2024-03-02T15:25:29;28.50;58.00
33841;DHT22;20142;28.494;-16.312;2024-03-02T15:30:31;28.80;55.60
33841;DHT22;20142;28.494;-16.312;2024-03-02T15:35:33;30.00;53.20
33841;DHT22;20142;28.494;-16.312;2024-03-02T15:40:35;30.10;53.70
33841;DHT22;20142;28.494;-16.312;2024-03-02T15:45:37;26.20;57.20
33841;DHT22;20142;28.494;-16.312;2024-03-02T15:50:39;25.90;59.80
33841;DHT22;20142;28.494;-16.312;2024-03-02T15:55:40;26.50;57.50
33841;DHT22;20142;28.494;-16.312;2024-03-02T16:00:42;27.30;57.00
33841;DHT22;20142;28.494;-16.312;2024-03-02T16:05:44;26.30;57.30
33841;DHT22;20142;28.494;-16.312;2024-03-02T16:10:46;26.80;57.00
33841;DHT22;20142;28.494;-16.312;2024-03-02T16:15:48;26.50;55.70
33841;DHT22;20142;28.494;-16.312;2024-03-02T16:20:49;24.80;61.00
33841;DHT22;20142;28.494;-16.312;2024-03-02T16:25:51;22.50;62.70
33841;DHT22;20142;28.494;-16.312;2024-03-02T16:30:53;25.80;59.90
33841;DHT22;20142;28.494;-16.312;2024-03-02T16:35:55;26.20;58.50
33841;DHT22;20142;28.494;-16.312;2024-03-02T16:40:57;25.90;58.10
33841;DHT22;20142;28.494;-16.312;2024-03-02T16:45:58;26.60;56.90
33841;DHT22;20142;28.494;-16.312;2024-03-02T16:51:00;26.00;58.70
33841;DHT22;20142;28.494;-16.312;2024-03-02T16:56:02;24.30;59.00
33841;DHT22;20142;28.494;-16.312;2024-03-02T17:01:04;25.80;58.30
33841;DHT22;20142;28.494;-16.312;2024-03-02T17:06:06;22.90;61.90
33841;DHT22;20142;28.494;-16.312;2024-03-02T17:11:08;23.80;61.30
33841;DHT22;20142;28.494;-16.312;2024-03-02T17:16:13;21.60;64.00
33841;DHT22;20142;28.494;-16.312;2024-03-02T17:21:18;19.90;67.30
33841;DHT22;20142;28.494;-16.312;2024-03-02T17:26:20;20.80;68.00
33841;DHT22;20142;28.494;-16.312;2024-03-02T17:31:22;19.70;69.50
33841;DHT22;20142;28.494;-16.312;2024-03-02T17:36:24;18.80;71.00
33841;DHT22;20142;28.494;-16.312;2024-03-02T17:41:25;18.00;73.40
33841;DHT22;20142;28.494;-16.312;2024-03-02T17:46:27;17.90;74.20
33841;DHT22;20142;28.494;-16.312;2024-03-02T17:51:29;17.50;75.20
33841;DHT22;20142;28.494;-16.312;2024-03-02T17:56:31;17.40;75.80
33841;DHT22;20142;28.494;-16.312;2024-03-02T18:01:33;17.10;76.80
33841;DHT22;20142;28.494;-16.312;2024-03-02T18:06:35;17.00;77.90
33841;DHT22;20142;28.494;-16.312;2024-03-02T18:11:37;16.80;78.90
33841;DHT22;20142;28.494;-16.312;2024-03-02T18:16:40;16.40;80.60
33841;DHT22;20142;28.494;-16.312;2024-03-02T18:21:42;16.30;81.00
33841;DHT22;20142;28.494;-16.312;2024-03-02T18:26:44;16.00;82.00
33841;DHT22;20142;28.494;-16.312;2024-03-02T18:31:45;15.90;82.60
33841;DHT22;20142;28.494;-16.312;2024-03-02T18:36:47;15.70;82.80
33841;DHT22;20142;28.494;-16.312;2024-03-02T18:41:49;15.70;83.80
33841;DHT22;20142;28.494;-16.312;2024-03-02T18:46:50;15.70;83.60
33841;DHT22;20142;28.494;-16.312;2024-03-02T18:51:52;15.60;84.10
33841;DHT22;20142;28.494;-16.312;2024-03-02T18:56:54;15.50;84.20
33841;DHT22;20142;28.494;-16.312;2024-03-02T19:01:56;15.30;85.00
33841;DHT22;20142;28.494;-16.312;2024-03-02T19:06:58;15.40;85.20
33841;DHT22;20142;28.494;-16.312;2024-03-02T19:12:00;15.30;85.30
33841;DHT22;20142;28.494;-16.312;2024-03-02T19:17:01;15.40;85.50
33841;DHT22;20142;28.494;-16.312;2024-03-02T19:22:03;15.30;85.80
33841;DHT22;20142;28.494;-16.312;2024-03-02T19:27:06;15.30;86.10
33841;DHT22;20142;28.494;-16.312;2024-03-02T19:32:07;15.20;86.00
33841;DHT22;20142;28.494;-16.312;2024-03-02T19:37:09;15.20;85.90
33841;DHT22;20142;28.494;-16.312;2024-03-02T19:42:11;15.20;86.20
33841;DHT22;20142;28.494;-16.312;2024-03-02T19:47:12;15.20;86.40
33841;DHT22;20142;28.494;-16.312;2024-03-02T19:52:19;15.20;86.90
33841;DHT22;20142;28.494;-16.312;2024-03-02T19:57:21;15.10;86.70
33841;DHT22;20142;28.494;-16.312;2024-03-02T20:02:25;15.10;86.70
33841;DHT22;20142;28.494;-16.312;2024-03-02T20:07:29;15.10;86.70
33841;DHT22;20142;28.494;-16.312;2024-03-02T20:12:34;15.20;86.90
33841;DHT22;20142;28.494;-16.312;2024-03-02T20:17:36;15.20;87.30
33841;DHT22;20142;28.494;-16.312;2024-03-02T20:22:39;15.10;87.20
33841;DHT22;20142;28.494;-16.312;2024-03-02T20:27:41;15.10;87.60
33841;DHT22;20142;28.494;-16.312;2024-03-02T20:32:46;15.10;88.10
33841;DHT22;20142;28.494;-16.312;2024-03-02T20:37:51;15.10;88.20
33841;DHT22;20142;28.494;-16.312;2024-03-02T20:42:53;15.20;88.00
33841;DHT22;20142;28.494;-16.312;2024-03-02T20:47:55;15.20;88.30
33841;DHT22;20142;28.494;-16.312;2024-03-02T20:52:57;15.10;88.60
33841;DHT22;20142;28.494;-16.312;2024-03-02T20:58:02;15.10;88.40
33841;DHT22;20142;28.494;-16.312;2024-03-02T21:03:04;15.10;88.10
33841;DHT22;20142;28.494;-16.312;2024-03-02T21:08:06;15.10;88.30
33841;DHT22;20142;28.494;-16.312;2024-03-02T21:13:10;15.20;88.10
33841;DHT22;20142;28.494;-16.312;2024-03-02T21:18:12;15.20;88.00
33841;DHT22;20142;28.494;-16.312;2024-03-02T21:23:14;15.10;88.20
33841;DHT22;20142;28.494;-16.312;2024-03-02T21:28:17;15.10;88.80
33841;DHT22;20142;28.494;-16.312;2024-03-02T21:33:22;15.20;88.50
33841;DHT22;20142;28.494;-16.312;2024-03-02T21:38:23;15.20;88.60
33841;DHT22;20142;28.494;-16.312;2024-03-02T21:43:26;15.20;88.60
33841;DHT22;20142;28.494;-16.312;2024-03-02T21:48:28;15.30;88.30
33841;DHT22;20142;28.494;-16.312;2024-03-02T21:53:30;15.30;88.20
33841;DHT22;20142;28.494;-16.312;2024-03-02T21:58:32;15.20;87.80
33841;DHT22;20142;28.494;-16.312;2024-03-02T22:03:34;15.20;87.80
33841;DHT22;20142;28.494;-16.312;2024-03-02T22:08:36;15.30;87.70
33841;DHT22;20142;28.494;-16.312;2024-03-02T22:13:38;15.30;87.80
33841;DHT22;20142;28.494;-16.312;2024-03-02T22:18:40;15.20;87.90
33841;DHT22;20142;28.494;-16.312;2024-03-02T22:23:42;15.20;88.20
33841;DHT22;20142;28.494;-16.312;2024-03-02T22:28:43;15.20;88.50
33841;DHT22;20142;28.494;-16.312;2024-03-02T22:33:45;15.20;88.70
33841;DHT22;20142;28.494;-16.312;2024-03-02T22:38:47;15.20;88.70
33841;DHT22;20142;28.494;-16.312;2024-03-02T22:43:49;15.10;88.20
33841;DHT22;20142;28.494;-16.312;2024-03-02T22:48:50;15.20;88.30
33841;DHT22;20142;28.494;-16.312;2024-03-02T22:53:52;15.10;88.50
33841;DHT22;20142;28.494;-16.312;2024-03-02T22:58:54;15.10;88.50
33841;DHT22;20142;28.494;-16.312;2024-03-02T23:03:56;15.20;88.70
33841;DHT22;20142;28.494;-16.312;2024-03-02T23:08:57;15.20;88.80
33841;DHT22;20142;28.494;-16.312;2024-03-02T23:13:59;15.20;89.00
33841;DHT22;20142;28.494;-16.312;2024-03-02T23:19:01;15.30;88.90
33841;DHT22;20142;28.494;-16.312;2024-03-02T23:24:03;15.30;88.80
33841;DHT22;20142;28.494;-16.312;2024-03-02T23:29:04;15.30;88.90
33841;DHT22;20142;28.494;-16.312;2024-03-02T23:34:06;15.30;89.10
33841;DHT22;20142;28.494;-16.312;2024-03-02T23:39:08;15.40;89.10
33841;DHT22;20142;28.494;-16.312;2024-03-02T23:44:11;15.30;88.90
33841;DHT22;20142;28.494;-16.312;2024-03-02T23:49:14;15.30;88.70
33841;DHT22;20142;28.494;-16.312;2024-03-02T23:54:16;15.20;88.80
33841;DHT22;20142;28.494;-16.312;2024-03-02T23:59:18;15.20;88.60
